createdAt,value
2019-05-03T00:02:28.433Z,63.04
2019-05-03T00:05:21.986Z,63.46
2019-05-03T00:07:52.669Z,64.57
2019-05-03T00:10:22.354Z,65.04
2019-05-03T00:12:50.371Z,64.08
2019-05-03T00:15:24.642Z,64.33
2019-05-03T00:17:52.713Z,63.99
2019-05-03T00:20:21.905Z,63.72
2019-05-03T00:22:49.857Z,64.19
2019-05-03T00:25:17.687Z,64.49
2019-05-03T00:27:45.476Z,64.63
2019-05-03T00:30:13.671Z,64.71
2019-05-03T00:32:42.796Z,64.69
2019-05-03T00:35:14.882Z,65.54
2019-05-03T00:37:44.614Z,66.01
2019-05-03T00:40:17.648Z,65.92
2019-05-03T00:42:45.459Z,65.53
2019-05-03T00:45:13.362Z,65.84
2019-05-03T00:47:42.140Z,65.16
2019-05-03T00:50:12.054Z,63.96
2019-05-03T00:52:39.943Z,64.43
2019-05-03T00:55:16.329Z,65.12
2019-05-03T00:57:37.550Z,66.12
2019-05-03T01:00:05.577Z,65.70
2019-05-03T01:02:33.341Z,65.43
2019-05-03T01:05:02.863Z,66.03
2019-05-03T01:07:31.842Z,66.49
2019-05-03T01:09:59.858Z,65.65
2019-05-03T01:12:27.668Z,64.37
2019-05-03T01:14:57.372Z,64.34
2019-05-03T01:17:25.228Z,64.78
2019-05-03T01:19:53.074Z,65.64
2019-05-03T01:22:22.609Z,67.28
2019-05-03T01:24:51.800Z,68.77
2019-05-03T01:27:21.813Z,71.69
2019-05-03T01:29:49.598Z,72.68
2019-05-03T01:32:17.406Z,73.97
2019-05-03T01:34:45.205Z,74.76
2019-05-03T01:37:12.997Z,74.73
2019-05-03T01:39:42.135Z,74.27
2019-05-03T01:42:11.826Z,73.53
2019-05-03T01:44:39.683Z,74.07
2019-05-03T01:47:11.606Z,75.75
2019-05-03T01:49:47.583Z,76.55
2019-05-03T01:52:23.022Z,76.01
2019-05-03T01:54:52.115Z,76.43
2019-05-03T01:57:21.940Z,76.65
2019-05-03T01:59:51.948Z,77.20
2019-05-03T02:02:42.055Z,77.66
2019-05-03T02:05:42.831Z,77.88
2019-05-03T02:08:13.121Z,78.50
2019-05-03T02:10:40.957Z,78.54
2019-05-03T02:13:08.801Z,78.21
2019-05-03T02:15:36.657Z,78.66
2019-05-03T02:18:04.487Z,78.92
2019-05-03T02:20:32.485Z,77.64
2019-05-03T02:23:00.417Z,77.32
2019-05-03T02:25:30.103Z,76.28
2019-05-03T02:28:01.789Z,75.54
2019-05-03T02:30:29.445Z,75.84
2019-05-03T02:32:57.263Z,76.09
2019-05-03T02:35:25.119Z,75.70
2019-05-03T02:37:53.639Z,72.51
2019-05-03T02:40:24.633Z,72.70
2019-05-03T02:43:17.145Z,73.45
2019-05-03T02:45:56.793Z,73.40
2019-05-03T02:48:31.374Z,71.33
2019-05-03T02:50:59.140Z,70.97
2019-05-03T02:53:26.964Z,72.21
2019-05-03T02:55:56.135Z,71.70
2019-05-03T02:58:25.313Z,70.39
2019-05-03T03:00:59.933Z,70.07
2019-05-03T03:03:29.312Z,69.37
2019-05-03T03:05:58.506Z,68.37
2019-05-03T03:08:28.387Z,68.04
2019-05-03T03:11:06.046Z,68.31
2019-05-03T03:13:37.016Z,66.74
2019-05-03T03:16:07.248Z,67.72
2019-05-03T03:18:37.212Z,69.69
2019-05-03T03:21:15.733Z,68.91
2019-05-03T03:24:00.035Z,68.27
2019-05-03T03:26:37.266Z,68.69
2019-05-03T03:29:06.203Z,68.89
2019-05-03T03:32:00.914Z,68.67
2019-05-03T03:34:38.878Z,68.92
2019-05-03T03:37:10.437Z,69.62
2019-05-03T03:39:36.893Z,70.17
2019-05-03T03:42:05.239Z,70.72
2019-05-03T03:44:36.329Z,70.75
2019-05-03T03:47:05.311Z,70.72
2019-05-03T03:49:36.981Z,70.73
2019-05-03T03:52:06.777Z,71.64
2019-05-03T03:54:38.822Z,71.61
2019-05-03T03:57:10.692Z,71.37
2019-05-03T03:59:38.774Z,70.76
2019-05-03T04:02:09.450Z,70.50
2019-05-03T04:04:37.915Z,70.99
2019-05-03T04:07:06.770Z,69.74
2019-05-03T04:09:36.568Z,70.72
2019-05-03T04:12:06.014Z,70.45
2019-05-03T04:14:50.641Z,68.57
2019-05-03T04:17:41.777Z,68.63
2019-05-03T04:20:10.386Z,69.18
2019-05-03T04:22:38.175Z,69.19
2019-05-03T04:25:06.388Z,69.04
2019-05-03T04:27:36.483Z,69.83
2019-05-03T04:30:07.099Z,71.03
2019-05-03T04:32:36.025Z,70.25
2019-05-03T04:35:05.387Z,64.94
2019-05-03T04:37:35.865Z,62.43
2019-05-03T04:40:06.104Z,61.71
2019-05-03T04:42:35.764Z,61.20
2019-05-03T04:45:05.879Z,60.44
2019-05-03T04:47:35.613Z,60.60
2019-05-03T04:50:05.369Z,59.93
2019-05-03T04:52:32.632Z,58.19
2019-05-03T04:55:00.618Z,58.17
2019-05-03T04:57:39.880Z,58.23
2019-05-03T04:59:58.108Z,58.02
2019-05-03T05:02:26.578Z,58.04
2019-05-03T05:04:55.561Z,58.70
2019-05-03T05:07:26.066Z,58.61
2019-05-03T05:09:55.871Z,59.24
2019-05-03T05:12:25.184Z,59.11
2019-05-03T05:14:52.844Z,59.09
2019-05-03T05:17:36.789Z,58.57
2019-05-03T05:20:11.827Z,58.65
2019-05-03T05:22:39.640Z,58.84
2019-05-03T05:25:11.320Z,59.26
2019-05-03T05:28:00.358Z,58.06
2019-05-03T05:30:28.541Z,57.78
2019-05-03T05:32:56.327Z,57.55
2019-05-03T05:35:24.858Z,57.83
2019-05-03T05:37:54.643Z,59.75
2019-05-03T05:40:24.431Z,60.06
2019-05-03T05:42:54.433Z,58.40
2019-05-03T05:45:21.936Z,58.32
2019-05-03T05:47:58.809Z,58.44
2019-05-03T05:50:32.183Z,58.39
2019-05-03T05:53:00.191Z,60.24
2019-05-03T05:55:48.057Z,61.36
2019-05-03T05:58:19.372Z,61.62
2019-05-03T06:01:14.609Z,61.80
2019-05-03T06:03:42.462Z,61.52
2019-05-03T06:06:15.296Z,62.09
2019-05-03T06:08:52.219Z,60.64
2019-05-03T06:11:31.535Z,59.90
2019-05-03T06:14:12.817Z,60.61
2019-05-03T06:16:50.567Z,60.64
2019-05-03T06:19:26.063Z,61.33
2019-05-03T06:21:59.245Z,61.82
2019-05-03T06:24:31.833Z,59.16
2019-05-03T06:27:28.341Z,58.46
2019-05-03T06:29:58.773Z,58.32
2019-05-03T06:32:37.731Z,57.49
2019-05-03T06:35:05.923Z,58.29
2019-05-03T06:37:39.625Z,58.24
2019-05-03T06:40:07.920Z,55.45
2019-05-03T06:42:35.725Z,54.96
2019-05-03T06:45:10.405Z,55.80
2019-05-03T06:47:34.853Z,56.46
2019-05-03T06:50:03.214Z,57.21
2019-05-03T06:52:31.027Z,57.51
2019-05-03T06:55:00.314Z,56.96
2019-05-03T06:57:28.810Z,57.76
2019-05-03T07:00:11.269Z,57.50
2019-05-03T07:02:48.124Z,57.82
2019-05-03T07:05:35.459Z,57.81
2019-05-03T07:08:22.975Z,57.70
2019-05-03T07:10:54.957Z,58.12
2019-05-03T07:13:22.861Z,57.52
2019-05-03T07:15:50.660Z,57.15
2019-05-03T07:18:18.442Z,57.79
2019-05-03T07:20:57.077Z,58.02
2019-05-03T07:23:25.022Z,57.46
2019-05-03T07:25:52.835Z,56.66
2019-05-03T07:28:20.664Z,56.27
2019-05-03T07:30:48.453Z,56.04
2019-05-03T07:33:22.258Z,55.99
2019-05-03T07:35:50.084Z,51.96
2019-05-03T07:38:17.911Z,48.35
2019-05-03T07:40:45.742Z,46.60
2019-05-03T07:43:14.845Z,44.29
2019-05-03T07:45:44.679Z,42.39
2019-05-03T07:48:12.551Z,42.31
2019-05-03T07:50:40.360Z,40.52
2019-05-03T07:53:08.139Z,41.42
2019-05-03T07:56:15.470Z,42.70
2019-05-03T07:58:58.631Z,45.29
2019-05-03T08:01:25.159Z,47.15
2019-05-03T08:03:55.025Z,47.23
2019-05-03T08:06:24.701Z,48.00
2019-05-03T08:08:54.405Z,47.62
2019-05-03T08:11:22.195Z,47.06
2019-05-03T08:13:49.983Z,46.24
2019-05-03T08:16:17.785Z,45.43
2019-05-03T08:18:45.799Z,44.73
2019-05-03T08:21:14.908Z,43.92
2019-05-03T08:23:42.898Z,43.57
2019-05-03T08:26:12.676Z,41.00
2019-05-03T08:28:40.557Z,42.15
2019-05-03T08:31:26.927Z,42.88
2019-05-03T08:34:23.189Z,42.18
2019-05-03T08:37:04.991Z,41.21
2019-05-03T08:39:32.468Z,39.48
2019-05-03T08:42:04.759Z,40.02
2019-05-03T08:44:35.345Z,40.38
2019-05-03T08:47:05.248Z,39.88
2019-05-03T08:49:34.801Z,38.93
2019-05-03T08:52:05.241Z,37.97
2019-05-03T08:54:34.760Z,37.79
2019-05-03T08:57:02.721Z,37.75
2019-05-03T08:59:32.770Z,39.12
2019-05-03T09:02:03.566Z,39.23
2019-05-03T09:04:37.175Z,38.12
2019-05-03T09:06:59.697Z,38.11
2019-05-03T09:09:46.151Z,36.93
2019-05-03T09:12:14.586Z,36.57
2019-05-03T09:14:45.810Z,36.50
2019-05-03T09:17:12.117Z,36.51
2019-05-03T09:19:40.035Z,36.27
2019-05-03T09:22:07.887Z,36.21
2019-05-03T09:24:35.956Z,34.81
2019-05-03T09:27:05.072Z,34.94
2019-05-03T09:29:42.512Z,35.86
2019-05-03T09:32:05.083Z,36.92
2019-05-03T09:34:34.948Z,37.84
2019-05-03T09:37:04.597Z,37.23
2019-05-03T09:39:32.990Z,37.01
2019-05-03T09:42:00.791Z,32.81
2019-05-03T09:44:28.609Z,26.94
2019-05-03T09:46:56.582Z,27.08
2019-05-03T09:49:25.345Z,28.47
2019-05-03T09:51:54.801Z,25.96
2019-05-03T09:54:28.087Z,20.10
2019-05-03T09:56:58.626Z,17.50
2019-05-03T09:59:27.365Z,18.04
2019-05-03T10:01:55.211Z,21.02
2019-05-03T10:04:23.153Z,22.54
2019-05-03T10:06:50.972Z,24.44
2019-05-03T10:09:18.733Z,25.47
2019-05-03T10:11:46.681Z,25.00
2019-05-03T10:14:15.585Z,25.14
2019-05-03T10:16:50.905Z,24.86
2019-05-03T10:19:18.714Z,23.77
2019-05-03T10:21:48.044Z,20.11
2019-05-03T10:24:15.847Z,15.48
2019-05-03T10:26:45.549Z,13.38
2019-05-03T10:29:15.236Z,17.21
2019-05-03T10:31:50.567Z,21.08
2019-05-03T10:34:18.414Z,22.51
2019-05-03T10:36:46.252Z,21.12
2019-05-03T10:39:15.455Z,19.34
2019-05-03T10:41:45.218Z,21.83
2019-05-03T10:44:15.039Z,24.74
2019-05-03T10:46:45.226Z,23.87
2019-05-03T10:49:15.146Z,18.77
2019-05-03T10:51:47.598Z,17.49
2019-05-03T10:54:15.438Z,19.26
2019-05-03T10:56:53.116Z,19.78
2019-05-03T10:59:21.858Z,21.20
2019-05-03T11:02:14.362Z,18.53
2019-05-03T11:04:44.239Z,17.08
2019-05-03T11:07:14.752Z,15.55
2019-05-03T11:09:49.763Z,15.11
2019-05-03T11:12:14.769Z,14.94
2019-05-03T11:14:42.719Z,17.77
2019-05-03T11:17:10.641Z,20.77
2019-05-03T11:19:38.447Z,23.65
2019-05-03T11:22:06.332Z,26.12
2019-05-03T11:24:34.850Z,27.66
2019-05-03T11:27:06.426Z,28.17
2019-05-03T11:29:35.563Z,27.17
2019-05-03T11:32:16.300Z,27.58
2019-05-03T11:35:04.457Z,25.29
2019-05-03T11:37:42.938Z,24.14
2019-05-03T11:40:10.926Z,21.90
2019-05-03T11:42:38.822Z,20.71
2019-05-03T11:45:06.901Z,17.14
2019-05-03T11:47:34.896Z,14.94
2019-05-03T11:50:04.026Z,14.36
2019-05-03T11:52:31.895Z,12.92
2019-05-03T11:54:59.642Z,14.37
2019-05-03T11:57:27.749Z,15.94
2019-05-03T11:59:55.688Z,17.42
2019-05-03T12:02:41.669Z,16.71
2019-05-03T12:05:16.591Z,14.95
2019-05-03T12:07:45.494Z,15.71
2019-05-03T12:10:30.084Z,16.00
2019-05-03T12:12:45.550Z,15.85
2019-05-03T12:15:15.135Z,15.07
2019-05-03T12:17:54.338Z,16.04
2019-05-03T12:20:18.094Z,18.74
2019-05-03T12:22:46.962Z,19.24
2019-05-03T12:25:16.730Z,19.71
2019-05-03T12:27:44.524Z,18.84
2019-05-03T12:30:15.217Z,18.10
2019-05-03T12:32:42.921Z,18.81
2019-05-03T12:35:10.747Z,20.23
2019-05-03T12:37:38.578Z,22.75
2019-05-03T12:40:10.981Z,22.31
2019-05-03T12:42:38.722Z,21.81
2019-05-03T12:45:06.807Z,22.14
2019-05-03T12:47:34.831Z,22.58
2019-05-03T12:50:05.102Z,23.80
2019-05-03T12:52:35.277Z,24.30
2019-05-03T12:55:04.462Z,25.33
2019-05-03T12:57:34.334Z,26.92
2019-05-03T13:00:25.098Z,27.46
2019-05-03T13:02:57.553Z,26.84
2019-05-03T13:05:25.763Z,27.16
2019-05-03T13:08:11.705Z,27.37
2019-05-03T13:10:39.516Z,27.27
2019-05-03T13:13:07.365Z,27.48
2019-05-03T13:15:35.274Z,27.07
2019-05-03T13:18:04.949Z,26.89
2019-05-03T13:20:32.890Z,26.64
2019-05-03T13:23:00.697Z,26.58
2019-05-03T13:25:29.268Z,27.04
2019-05-03T13:27:57.090Z,27.68
2019-05-03T13:30:25.141Z,27.98
2019-05-03T13:32:54.888Z,27.46
2019-05-03T13:35:22.856Z,27.02
2019-05-03T13:37:50.912Z,25.24
2019-05-03T13:40:18.789Z,24.54
2019-05-03T13:42:56.231Z,20.79
2019-05-03T13:45:16.345Z,17.34
2019-05-03T13:47:44.773Z,16.25
2019-05-03T13:50:14.974Z,15.44
2019-05-03T13:52:42.467Z,16.16
2019-05-03T13:55:10.233Z,19.86
2019-05-03T13:57:38.039Z,22.91
2019-05-03T14:00:06.172Z,23.55
2019-05-03T14:02:35.753Z,25.20
2019-05-03T14:05:04.936Z,26.78
2019-05-03T14:07:35.205Z,27.48
2019-05-03T14:10:02.732Z,28.48
2019-05-03T14:12:30.590Z,28.80
2019-05-03T14:14:58.370Z,28.79
2019-05-03T14:17:28.268Z,29.11
2019-05-03T14:20:21.743Z,29.00
2019-05-03T14:22:51.124Z,29.28
2019-05-03T14:25:18.942Z,29.26
2019-05-03T14:27:46.771Z,29.47
2019-05-03T14:30:15.159Z,29.05
2019-05-03T14:32:45.131Z,28.06
2019-05-03T14:35:14.422Z,27.92
2019-05-03T14:37:42.744Z,28.68
2019-05-03T14:40:10.616Z,28.13
2019-05-03T14:42:38.421Z,28.61
2019-05-03T14:45:06.743Z,29.14
2019-05-03T14:47:34.575Z,28.26
2019-05-03T14:50:02.469Z,28.44
2019-05-03T14:52:30.340Z,27.68
2019-05-03T14:55:06.653Z,28.15
2019-05-03T14:57:38.334Z,29.19
2019-05-03T15:00:17.318Z,27.72
2019-05-03T15:03:05.908Z,27.85
2019-05-03T15:05:34.768Z,28.31
2019-05-03T15:08:02.966Z,28.41
2019-05-03T15:10:30.841Z,28.42
2019-05-03T15:12:58.795Z,28.59
2019-05-03T15:15:28.815Z,29.56
2019-05-03T15:17:56.391Z,30.30
2019-05-03T15:20:25.532Z,30.89
2019-05-03T15:22:54.831Z,31.77
2019-05-03T15:25:24.930Z,31.31
2019-05-03T15:27:52.493Z,30.96
2019-05-03T15:30:20.773Z,31.14
2019-05-03T15:32:57.679Z,31.35
2019-05-03T15:35:18.659Z,32.19
2019-05-03T15:37:46.472Z,32.71
2019-05-03T15:40:15.703Z,32.99
2019-05-03T15:42:48.868Z,33.29
2019-05-03T15:45:39.061Z,33.63
2019-05-03T15:48:15.047Z,33.23
2019-05-03T15:50:44.626Z,32.62
2019-05-03T15:53:12.550Z,31.68
2019-05-03T15:55:40.374Z,30.70
2019-05-03T15:58:08.179Z,30.96
2019-05-03T16:00:35.988Z,31.44
2019-05-03T16:03:08.964Z,32.26
2019-05-03T16:05:35.415Z,32.71
2019-05-03T16:08:04.625Z,32.96
2019-05-03T16:10:32.573Z,32.58
2019-05-03T16:13:00.380Z,32.66
2019-05-03T16:15:28.160Z,32.74
2019-05-03T16:17:55.967Z,33.15
2019-05-03T16:20:25.142Z,33.24
2019-05-03T16:22:54.452Z,33.03
2019-05-03T16:25:24.915Z,33.25
2019-05-03T16:27:59.115Z,33.13
2019-05-03T16:30:52.143Z,33.14
2019-05-03T16:33:27.010Z,32.66
2019-05-03T16:35:49.635Z,32.88
2019-05-03T16:38:17.415Z,32.37
2019-05-03T16:40:45.286Z,32.42
2019-05-03T16:43:13.166Z,32.05
2019-05-03T16:45:41.024Z,32.68
2019-05-03T16:48:08.810Z,33.68
2019-05-03T16:50:36.596Z,33.82
2019-05-03T16:53:05.591Z,34.01
2019-05-03T16:55:35.147Z,35.11
2019-05-03T16:58:03.321Z,35.17
2019-05-03T17:00:31.142Z,34.96
2019-05-03T17:02:58.971Z,35.54
2019-05-03T17:06:01.294Z,35.81
2019-05-03T17:08:47.203Z,35.74
2019-05-03T17:11:17.316Z,35.29
2019-05-03T17:13:47.615Z,34.72
2019-05-03T17:16:14.835Z,35.17
2019-05-03T17:18:44.664Z,35.62
2019-05-03T17:21:14.598Z,35.96
2019-05-03T17:23:42.178Z,35.74
2019-05-03T17:26:10.000Z,35.51
2019-05-03T17:28:37.883Z,35.38
2019-05-03T17:31:05.693Z,35.85
2019-05-03T17:33:34.840Z,36.02
2019-05-03T17:36:02.790Z,35.84
2019-05-03T17:38:30.607Z,35.77
2019-05-03T17:41:25.590Z,35.70
2019-05-03T17:44:00.082Z,35.43
2019-05-03T17:46:27.899Z,35.60
2019-05-03T17:48:55.747Z,35.22
2019-05-03T17:51:45.582Z,35.48
2019-05-03T17:54:33.415Z,35.19
2019-05-03T17:57:07.992Z,35.85
2019-05-03T17:59:40.148Z,35.87
2019-05-03T18:02:45.573Z,36.38
2019-05-03T18:05:22.057Z,36.61
2019-05-03T18:08:27.511Z,36.81
2019-05-03T18:11:08.056Z,37.10
2019-05-03T18:13:35.889Z,37.13
2019-05-03T18:16:04.762Z,37.73
2019-05-03T18:18:32.760Z,38.17
2019-05-03T18:21:00.661Z,38.28
2019-05-03T18:23:28.508Z,38.27
2019-05-03T18:25:56.325Z,38.64
2019-05-03T18:28:25.012Z,38.69
2019-05-03T18:30:54.577Z,39.19
2019-05-03T18:33:24.579Z,39.49
2019-05-03T18:35:52.445Z,39.23
2019-05-03T18:38:22.268Z,39.82
2019-05-03T18:40:50.105Z,40.07
2019-05-03T18:43:25.958Z,39.87
2019-05-03T18:46:22.262Z,40.40
2019-05-03T18:48:50.468Z,40.67
2019-05-03T18:51:18.428Z,40.72
2019-05-03T18:53:46.301Z,40.80
2019-05-03T18:56:14.746Z,40.86
2019-05-03T18:58:44.700Z,41.15
2019-05-03T19:01:14.680Z,41.21
2019-05-03T19:03:45.118Z,41.33
2019-05-03T19:06:14.191Z,41.52
2019-05-03T19:09:00.220Z,41.37
2019-05-03T19:11:35.198Z,41.82
2019-05-03T19:14:05.513Z,42.24
2019-05-03T19:16:45.417Z,42.40
2019-05-03T19:19:13.734Z,42.13
2019-05-03T19:21:41.566Z,42.50
2019-05-03T19:24:09.570Z,42.63
2019-05-03T19:26:37.421Z,42.57
2019-05-03T19:29:05.295Z,43.05
2019-05-03T19:31:35.604Z,42.96
2019-05-03T19:34:03.667Z,43.34
2019-05-03T19:36:31.501Z,43.45
2019-05-03T19:38:59.676Z,43.65
2019-05-03T19:41:27.483Z,43.97
2019-05-03T19:43:55.361Z,44.23
2019-05-03T19:46:24.835Z,44.15
2019-05-03T19:48:54.585Z,44.08
2019-05-03T19:51:22.493Z,44.50
2019-05-03T19:53:55.087Z,44.44
2019-05-03T19:56:25.350Z,44.40
2019-05-03T19:58:57.285Z,44.81
2019-05-03T20:01:44.781Z,44.39
2019-05-03T20:04:35.086Z,44.35
2019-05-03T20:07:21.332Z,44.20
2019-05-03T20:09:49.224Z,43.97
2019-05-03T20:12:17.068Z,44.17
2019-05-03T20:14:45.115Z,44.28
2019-05-03T20:17:14.686Z,44.45
2019-05-03T20:19:42.679Z,44.37
2019-05-03T20:22:10.635Z,44.23
2019-05-03T20:24:38.439Z,44.24
2019-05-03T20:27:06.278Z,44.19
2019-05-03T20:29:34.521Z,44.10
2019-05-03T20:32:02.419Z,43.69
2019-05-03T20:34:30.238Z,43.73
2019-05-03T20:36:58.050Z,43.90
2019-05-03T20:39:25.853Z,43.96
2019-05-03T20:41:55.041Z,44.07
2019-05-03T20:44:45.251Z,44.17
2019-05-03T20:47:34.737Z,44.06
2019-05-03T20:50:15.889Z,44.00
2019-05-03T20:52:44.479Z,44.14
2019-05-03T20:55:15.351Z,44.02
2019-05-03T20:57:44.417Z,44.23
2019-05-03T21:00:17.234Z,44.51
2019-05-03T21:02:53.483Z,44.36
2019-05-03T21:05:26.705Z,44.65
2019-05-03T21:07:45.494Z,44.92
2019-05-03T21:10:15.665Z,45.15
2019-05-03T21:12:43.423Z,45.36
2019-05-03T21:15:19.370Z,45.26
2019-05-03T21:18:05.164Z,45.07
2019-05-03T21:20:49.857Z,44.85
2019-05-03T21:23:18.902Z,45.29
2019-05-03T21:26:12.584Z,45.38
2019-05-03T21:28:34.712Z,45.55
2019-05-03T21:31:02.527Z,45.74
2019-05-03T21:33:30.362Z,46.06
2019-05-03T21:35:58.171Z,46.47
2019-05-03T21:38:26.004Z,46.58
2019-05-03T21:40:54.682Z,46.63
2019-05-03T21:43:22.576Z,46.31
2019-05-03T21:45:55.975Z,46.36
2019-05-03T21:48:28.801Z,46.95
2019-05-03T21:50:56.592Z,47.45
2019-05-03T21:53:25.121Z,47.64
2019-05-03T21:55:53.025Z,48.06
2019-05-03T21:58:20.842Z,48.07
2019-05-03T22:00:54.739Z,47.90
2019-05-03T22:03:22.592Z,48.55
2019-05-03T22:05:54.986Z,48.60
2019-05-03T22:08:20.226Z,48.29
2019-05-03T22:10:48.008Z,48.47
2019-05-03T22:13:16.937Z,48.59
2019-05-03T22:15:52.893Z,48.90
2019-05-03T22:18:24.729Z,49.34
2019-05-03T22:21:15.355Z,49.64
2019-05-03T22:24:07.404Z,49.67
2019-05-03T22:26:53.191Z,49.95
2019-05-03T22:29:21.025Z,50.02
2019-05-03T22:31:48.830Z,50.17
2019-05-03T22:34:16.611Z,50.30
2019-05-03T22:36:44.564Z,50.36
2019-05-03T22:39:12.433Z,50.62
2019-05-03T22:41:40.231Z,50.77
2019-05-03T22:44:08.339Z,50.71
2019-05-03T22:46:36.372Z,50.37
2019-05-03T22:49:04.888Z,50.19
2019-05-03T22:51:34.509Z,49.94
2019-05-03T22:54:02.463Z,49.72
2019-05-03T22:56:30.776Z,49.68
2019-05-03T22:58:58.553Z,49.19
2019-05-03T23:01:26.377Z,49.37
2019-05-03T23:03:55.110Z,49.44
2019-05-03T23:06:25.050Z,49.68
2019-05-03T23:08:55.915Z,49.85
2019-05-03T23:11:24.416Z,50.23
2019-05-03T23:14:00.732Z,50.58
2019-05-03T23:16:30.831Z,50.75
2019-05-03T23:18:58.751Z,51.09
2019-05-03T23:21:29.072Z,51.00
2019-05-03T23:23:56.889Z,51.08
2019-05-03T23:26:25.474Z,51.09
2019-05-03T23:28:55.116Z,51.31
2019-05-03T23:31:25.000Z,51.39
2019-05-03T23:33:54.470Z,51.40
2019-05-03T23:36:32.860Z,51.46
2019-05-03T23:38:52.129Z,51.33
2019-05-03T23:41:19.963Z,51.13
2019-05-03T23:43:47.782Z,51.17
2019-05-03T23:46:17.521Z,51.16
2019-05-03T23:48:45.302Z,51.46
2019-05-03T23:51:32.711Z,51.11
2019-05-03T23:54:01.199Z,51.16
2019-05-03T23:56:28.982Z,51.06
2019-05-03T23:58:56.796Z,50.89
